createdAt,value
2019-05-22T00:01:10.942Z,36.30
2019-05-22T00:03:50.578Z,38.30
2019-05-22T00:06:26.761Z,38.57
2019-05-22T00:08:58.500Z,41.07
2019-05-22T00:11:29.844Z,39.47
2019-05-22T00:14:00.226Z,42.80
2019-05-22T00:16:34.010Z,44.40
2019-05-22T00:19:06.348Z,45.30
2019-05-22T00:21:38.449Z,42.77
2019-05-22T00:24:10.559Z,41.83
2019-05-22T00:26:43.664Z,48.07
2019-05-22T00:29:15.734Z,42.97
2019-05-22T00:31:47.962Z,47.67
2019-05-22T00:34:20.881Z,49.73
2019-05-22T00:36:51.367Z,42.63
2019-05-22T00:39:21.986Z,43.40
2019-05-22T00:41:53.027Z,41.13
2019-05-22T00:44:25.574Z,46.87
2019-05-22T00:46:55.931Z,38.17
2019-05-22T00:49:27.134Z,37.23
2019-05-22T00:52:19.763Z,37.53
2019-05-22T00:55:06.115Z,36.00
2019-05-22T00:57:42.734Z,37.27
2019-05-22T01:00:21.820Z,36.33
2019-05-22T01:02:54.342Z,27.90
2019-05-22T01:05:25.210Z,29.20
2019-05-22T01:07:56.761Z,24.43
2019-05-22T01:10:30.141Z,24.20
2019-05-22T01:13:04.230Z,19.97
2019-05-22T01:15:35.638Z,22.10
2019-05-22T01:18:10.070Z,19.70
2019-05-22T01:20:41.955Z,16.60
2019-05-22T01:23:17.849Z,18.83
2019-05-22T01:25:48.479Z,14.83
2019-05-22T01:28:19.595Z,15.83
2019-05-22T01:31:00.402Z,14.47
2019-05-22T01:33:35.787Z,13.60
2019-05-22T01:36:17.010Z,16.87
2019-05-22T01:38:47.379Z,14.60
2019-05-22T01:41:25.305Z,14.63
2019-05-22T01:43:59.541Z,15.30
2019-05-22T01:46:34.251Z,15.37
2019-05-22T01:49:08.286Z,13.57
2019-05-22T01:51:39.238Z,16.17
2019-05-22T01:54:11.151Z,11.70
2019-05-22T01:56:41.793Z,14.03
2019-05-22T01:59:13.513Z,15.47
2019-05-22T02:01:45.022Z,13.63
2019-05-22T02:04:17.217Z,11.73
2019-05-22T02:06:48.461Z,10.43
2019-05-22T02:09:33.594Z,14.67
2019-05-22T02:12:10.185Z,12.00
2019-05-22T02:14:44.446Z,13.93
2019-05-22T02:17:16.078Z,16.67
2019-05-22T02:19:48.197Z,11.80
2019-05-22T02:22:18.738Z,12.87
2019-05-22T02:24:51.760Z,12.63
2019-05-22T02:27:23.942Z,16.63
2019-05-22T02:29:55.474Z,10.10
2019-05-22T02:32:28.431Z,13.27
2019-05-22T02:34:58.782Z,10.40
2019-05-22T02:37:30.091Z,14.90
2019-05-22T02:40:03.280Z,11.57
2019-05-22T02:42:34.224Z,10.07
2019-05-22T02:45:07.682Z,12.77
2019-05-22T02:47:38.694Z,8.83
2019-05-22T02:50:09.276Z,12.67
2019-05-22T02:52:40.396Z,10.73
2019-05-22T02:55:11.326Z,13.17
2019-05-22T02:57:42.315Z,10.67
2019-05-22T03:00:14.278Z,14.40
2019-05-22T03:02:50.891Z,10.33
2019-05-22T03:05:22.679Z,11.60
2019-05-22T03:07:53.611Z,11.50
2019-05-22T03:10:26.582Z,10.80
2019-05-22T03:12:58.179Z,13.57
2019-05-22T03:15:29.717Z,12.97
2019-05-22T03:18:02.799Z,15.97
2019-05-22T03:20:35.771Z,16.93
2019-05-22T03:23:35.462Z,14.80
2019-05-22T03:26:10.849Z,18.40
2019-05-22T03:28:42.079Z,20.33
2019-05-22T03:31:15.286Z,16.20
2019-05-22T03:33:47.150Z,18.20
2019-05-22T03:36:20.791Z,21.60
2019-05-22T03:38:51.599Z,18.00
2019-05-22T03:41:22.925Z,19.93
2019-05-22T03:43:55.380Z,16.47
2019-05-22T03:46:35.825Z,17.37
2019-05-22T03:49:07.889Z,17.37
2019-05-22T03:51:38.900Z,15.57
2019-05-22T03:54:11.136Z,19.90
2019-05-22T03:56:42.288Z,14.43
2019-05-22T03:59:13.445Z,18.17
2019-05-22T04:01:44.780Z,17.83
2019-05-22T04:04:32.649Z,14.40
2019-05-22T04:07:03.762Z,14.20
2019-05-22T04:09:34.515Z,15.87
2019-05-22T04:12:06.296Z,15.47
2019-05-22T04:14:37.734Z,16.37
2019-05-22T04:17:10.665Z,16.60
2019-05-22T04:19:49.457Z,16.03
2019-05-22T04:22:14.173Z,17.13
2019-05-22T04:24:46.588Z,17.50
2019-05-22T04:27:17.638Z,18.17
2019-05-22T04:29:49.824Z,17.33
2019-05-22T04:32:31.623Z,19.33
2019-05-22T04:35:03.749Z,16.13
2019-05-22T04:37:34.262Z,18.67
2019-05-22T04:40:52.954Z,15.77
2019-05-22T04:43:30.735Z,15.97
2019-05-22T04:46:03.455Z,16.97
2019-05-22T04:48:36.272Z,14.93
2019-05-22T04:51:26.915Z,18.10
2019-05-22T04:53:57.933Z,15.20
2019-05-22T04:56:29.661Z,17.40
2019-05-22T04:59:03.405Z,16.40
2019-05-22T05:01:34.820Z,15.57
2019-05-22T05:04:06.662Z,16.33
2019-05-22T05:06:37.502Z,18.67
2019-05-22T05:09:11.501Z,16.77
2019-05-22T05:11:42.196Z,18.20
2019-05-22T05:14:12.766Z,16.93
2019-05-22T05:16:43.470Z,19.67
2019-05-22T05:19:13.894Z,18.63
2019-05-22T05:21:44.331Z,19.03
2019-05-22T05:24:14.744Z,16.03
2019-05-22T05:26:47.389Z,17.07
2019-05-22T05:29:29.332Z,16.13
2019-05-22T05:32:00.671Z,20.77
2019-05-22T05:34:52.760Z,14.00
2019-05-22T05:37:25.060Z,11.03
2019-05-22T05:40:29.540Z,11.93
2019-05-22T05:43:00.991Z,10.77
2019-05-22T05:45:33.580Z,11.60
2019-05-22T05:48:07.187Z,10.40
2019-05-22T05:50:40.582Z,9.90
2019-05-22T05:53:16.688Z,12.27
2019-05-22T05:56:14.902Z,11.73
2019-05-22T05:58:45.713Z,10.07
2019-05-22T06:01:21.844Z,10.10
2019-05-22T06:03:52.956Z,10.30
2019-05-22T06:07:12.044Z,10.70
2019-05-22T06:09:42.762Z,11.23
2019-05-22T06:12:13.882Z,9.63
2019-05-22T06:14:44.250Z,8.70
2019-05-22T06:18:07.303Z,9.33
2019-05-22T06:20:38.348Z,11.23
2019-05-22T06:23:50.623Z,13.60
2019-05-22T06:27:18.682Z,10.93
2019-05-22T06:30:13.301Z,12.23
2019-05-22T06:33:25.386Z,10.87
2019-05-22T06:35:56.995Z,11.97
2019-05-22T06:38:55.391Z,11.20
2019-05-22T06:41:31.352Z,13.07
2019-05-22T06:44:45.487Z,10.90
2019-05-22T06:47:22.903Z,10.33
2019-05-22T06:49:59.175Z,11.60
2019-05-22T06:52:29.681Z,13.23
2019-05-22T06:55:00.220Z,13.47
2019-05-22T06:57:34.891Z,11.57
2019-05-22T07:00:19.987Z,12.67
2019-05-22T07:02:50.988Z,14.00
2019-05-22T07:05:21.965Z,12.53
2019-05-22T07:07:52.427Z,13.40
2019-05-22T07:10:24.781Z,13.83
2019-05-22T07:12:55.295Z,14.30
2019-05-22T07:15:34.125Z,13.63
2019-05-22T07:18:07.150Z,14.03
2019-05-22T07:20:39.771Z,10.83
2019-05-22T07:23:12.936Z,10.07
2019-05-22T07:25:44.326Z,9.93
2019-05-22T07:28:16.970Z,9.53
2019-05-22T07:30:48.764Z,8.93
2019-05-22T07:33:21.067Z,9.27
2019-05-22T07:36:08.479Z,8.93
2019-05-22T07:38:24.365Z,8.70
2019-05-22T07:40:55.496Z,8.80
2019-05-22T07:43:26.543Z,11.40
2019-05-22T07:45:57.620Z,7.23
2019-05-22T07:48:29.998Z,8.43
2019-05-22T07:51:04.604Z,7.20
2019-05-22T07:53:35.097Z,7.53
2019-05-22T07:56:09.793Z,5.87
2019-05-22T07:58:41.150Z,5.13
2019-05-22T08:01:12.043Z,7.00
2019-05-22T08:03:45.484Z,6.57
2019-05-22T08:06:16.491Z,5.10
2019-05-22T08:08:47.441Z,5.00
2019-05-22T08:11:19.634Z,5.77
2019-05-22T08:13:51.457Z,6.57
2019-05-22T08:16:22.218Z,8.23
2019-05-22T08:18:52.710Z,9.23
2019-05-22T08:21:23.845Z,8.07
2019-05-22T08:23:55.690Z,12.83
2019-05-22T08:26:26.988Z,6.87
2019-05-22T08:28:57.956Z,9.23
2019-05-22T08:31:28.350Z,7.53
2019-05-22T08:33:59.281Z,7.30
2019-05-22T08:36:30.672Z,7.93
2019-05-22T08:39:02.264Z,8.43
2019-05-22T08:41:36.992Z,7.93
2019-05-22T08:44:17.448Z,6.70
2019-05-22T08:46:40.127Z,7.43
2019-05-22T08:49:11.228Z,7.27
2019-05-22T08:51:41.687Z,6.93
2019-05-22T08:54:14.106Z,8.73
2019-05-22T08:56:48.417Z,6.53
2019-05-22T08:59:20.343Z,6.37
2019-05-22T09:01:51.365Z,6.57
2019-05-22T09:04:22.239Z,7.73
2019-05-22T09:06:52.593Z,6.60
2019-05-22T09:09:23.636Z,6.83
2019-05-22T09:11:54.354Z,6.90
2019-05-22T09:14:24.717Z,6.90
2019-05-22T09:16:56.145Z,9.47
2019-05-22T09:19:26.484Z,8.67
2019-05-22T09:21:57.772Z,7.60
2019-05-22T09:24:28.776Z,7.63
2019-05-22T09:27:02.771Z,9.63
2019-05-22T09:29:32.305Z,8.03
2019-05-22T09:32:03.040Z,8.53
2019-05-22T09:34:34.269Z,7.03
2019-05-22T09:37:04.749Z,9.80
2019-05-22T09:39:35.197Z,7.90
2019-05-22T09:42:05.667Z,10.97
2019-05-22T09:44:36.075Z,8.40
2019-05-22T09:47:08.348Z,8.07
2019-05-22T09:49:39.388Z,7.53
2019-05-22T09:52:10.606Z,7.77
2019-05-22T09:54:42.275Z,6.40
2019-05-22T09:57:12.810Z,6.40
2019-05-22T09:59:43.818Z,7.30
2019-05-22T10:02:14.526Z,8.80
2019-05-22T10:04:44.990Z,8.87
2019-05-22T10:07:15.526Z,13.10
2019-05-22T10:09:46.246Z,8.70
2019-05-22T10:12:16.726Z,7.90
2019-05-22T10:14:47.388Z,7.27
2019-05-22T10:17:18.103Z,7.20
2019-05-22T10:19:48.552Z,6.63
2019-05-22T10:22:19.748Z,8.17
2019-05-22T10:24:51.874Z,7.30
2019-05-22T10:27:22.871Z,8.57
2019-05-22T10:29:53.299Z,9.63
2019-05-22T10:32:23.997Z,8.03
2019-05-22T10:34:57.704Z,8.67
2019-05-22T10:37:28.016Z,8.00
2019-05-22T10:39:59.096Z,7.17
2019-05-22T10:42:30.302Z,7.17
2019-05-22T10:45:01.199Z,7.23
2019-05-22T10:47:31.728Z,7.67
2019-05-22T10:50:02.844Z,7.63
2019-05-22T10:52:33.869Z,7.83
2019-05-22T10:55:06.131Z,7.42
2019-05-22T10:57:40.435Z,9.13
2019-05-22T11:00:12.164Z,8.20
2019-05-22T11:02:44.108Z,6.60
2019-05-22T11:05:15.314Z,8.88
2019-05-22T11:07:46.166Z,8.30
2019-05-22T11:10:18.356Z,7.62
2019-05-22T11:12:49.249Z,7.90
2019-05-22T11:15:20.248Z,8.45
2019-05-22T11:17:53.515Z,8.83
2019-05-22T11:20:25.343Z,10.27
2019-05-22T11:22:55.941Z,9.90
2019-05-22T11:25:26.528Z,9.73
2019-05-22T11:27:56.885Z,9.70
2019-05-22T11:30:27.720Z,11.03
2019-05-22T11:32:58.945Z,9.10
2019-05-22T11:35:30.413Z,9.50
2019-05-22T11:38:03.103Z,10.53
2019-05-22T11:40:34.067Z,9.93
2019-05-22T11:43:04.926Z,9.60
2019-05-22T11:45:35.820Z,10.47
2019-05-22T11:48:06.344Z,9.53
2019-05-22T11:50:38.075Z,8.73
2019-05-22T11:53:08.781Z,8.73
2019-05-22T11:55:45.422Z,7.80
2019-05-22T11:58:11.755Z,8.00
2019-05-22T12:00:42.465Z,7.60
2019-05-22T12:03:12.969Z,7.43
2019-05-22T12:05:45.163Z,8.63
2019-05-22T12:08:15.627Z,7.13
2019-05-22T12:10:47.232Z,6.80
2019-05-22T12:13:18.223Z,8.38
2019-05-22T12:15:48.759Z,7.03
2019-05-22T12:18:20.300Z,7.87
2019-05-22T12:20:50.913Z,6.35
2019-05-22T12:23:21.523Z,7.70
2019-05-22T12:25:52.274Z,6.63
2019-05-22T12:28:22.802Z,7.53
2019-05-22T12:30:53.682Z,7.53
2019-05-22T12:33:24.321Z,7.43
2019-05-22T12:35:54.810Z,7.23
2019-05-22T12:38:27.135Z,8.20
2019-05-22T12:40:58.254Z,7.20
2019-05-22T12:43:30.385Z,8.00
2019-05-22T12:46:00.874Z,9.93
2019-05-22T12:48:31.826Z,8.00
2019-05-22T12:51:04.838Z,8.63
2019-05-22T12:53:36.754Z,9.20
2019-05-22T12:56:07.822Z,9.37
2019-05-22T12:58:38.534Z,8.17
2019-05-22T13:01:09.111Z,8.57
2019-05-22T13:03:39.988Z,6.90
2019-05-22T13:06:11.198Z,8.20
2019-05-22T13:08:43.004Z,9.77
2019-05-22T13:11:14.233Z,9.90
2019-05-22T13:13:45.352Z,8.93
2019-05-22T13:16:16.945Z,9.60
2019-05-22T13:18:48.677Z,9.43
2019-05-22T13:21:22.381Z,10.53
2019-05-22T13:23:53.213Z,7.87
2019-05-22T13:26:25.182Z,8.20
2019-05-22T13:28:56.469Z,7.07
2019-05-22T13:31:27.227Z,9.60
2019-05-22T13:33:58.786Z,8.50
2019-05-22T13:36:29.579Z,10.60
2019-05-22T13:39:00.353Z,8.77
2019-05-22T13:41:30.861Z,8.97
2019-05-22T13:44:01.812Z,9.47
2019-05-22T13:46:32.399Z,9.40
2019-05-22T13:49:02.818Z,9.80
2019-05-22T13:51:33.725Z,9.77
2019-05-22T13:54:05.287Z,10.70
2019-05-22T13:56:36.421Z,8.97
2019-05-22T13:59:07.466Z,9.03
2019-05-22T14:01:37.973Z,9.83
2019-05-22T14:04:08.629Z,8.63
2019-05-22T14:06:39.456Z,9.10
2019-05-22T14:09:13.703Z,10.60
2019-05-22T14:11:46.988Z,11.40
2019-05-22T14:14:17.848Z,9.33
2019-05-22T14:16:49.458Z,10.27
2019-05-22T14:19:20.056Z,10.67
2019-05-22T14:21:51.999Z,9.63
2019-05-22T14:24:22.794Z,8.67
2019-05-22T14:26:53.315Z,9.53
2019-05-22T14:29:23.798Z,8.63
2019-05-22T14:31:55.396Z,8.60
2019-05-22T14:34:26.334Z,10.73
2019-05-22T14:36:57.472Z,10.33
2019-05-22T14:39:29.404Z,8.97
2019-05-22T14:41:59.842Z,9.67
2019-05-22T14:44:34.045Z,8.43
2019-05-22T14:47:13.751Z,10.10
2019-05-22T14:49:36.656Z,10.03
2019-05-22T14:52:07.397Z,8.67
2019-05-22T14:54:37.997Z,7.83
2019-05-22T14:57:08.810Z,8.60
2019-05-22T14:59:40.341Z,11.07
2019-05-22T15:02:11.467Z,9.10
2019-05-22T15:04:42.720Z,27.17
2019-05-22T15:07:13.266Z,8.33
2019-05-22T15:09:43.709Z,9.23
2019-05-22T15:12:14.280Z,8.17
2019-05-22T15:14:45.962Z,8.67
2019-05-22T15:17:31.948Z,8.73
2019-05-22T15:19:49.523Z,8.63
2019-05-22T15:22:19.941Z,9.50
2019-05-22T15:24:50.976Z,8.47
2019-05-22T15:27:21.569Z,9.07
2019-05-22T15:29:52.015Z,9.00
2019-05-22T15:32:22.987Z,8.67
2019-05-22T15:34:53.657Z,8.07
2019-05-22T15:37:25.126Z,8.63
2019-05-22T15:39:56.349Z,9.53
2019-05-22T15:42:36.334Z,9.00
2019-05-22T15:45:09.645Z,7.90
2019-05-22T15:47:54.365Z,8.33
2019-05-22T15:50:17.629Z,7.50
2019-05-22T15:52:54.510Z,7.90
2019-05-22T15:55:26.353Z,8.27
2019-05-22T15:57:59.475Z,8.60
2019-05-22T16:00:33.800Z,7.53
2019-05-22T16:03:11.733Z,8.10
2019-05-22T16:05:43.505Z,6.70
2019-05-22T16:08:15.657Z,7.03
2019-05-22T16:10:48.092Z,8.03
2019-05-22T16:13:22.552Z,7.70
2019-05-22T16:15:54.453Z,6.70
2019-05-22T16:18:28.318Z,6.20
2019-05-22T16:21:02.619Z,6.03
2019-05-22T16:23:35.508Z,10.30
2019-05-22T16:26:07.057Z,6.43
2019-05-22T16:28:40.653Z,5.30
2019-05-22T16:31:12.361Z,5.90
2019-05-22T16:33:45.041Z,5.90
2019-05-22T16:36:15.897Z,8.03
2019-05-22T16:38:47.494Z,6.37
2019-05-22T16:41:18.673Z,5.67
2019-05-22T16:43:50.548Z,5.80
2019-05-22T16:46:23.190Z,6.23
2019-05-22T16:48:54.046Z,6.53
2019-05-22T16:51:25.898Z,5.47
2019-05-22T16:54:01.824Z,5.50
2019-05-22T16:56:32.490Z,9.53
2019-05-22T16:59:04.588Z,7.10
2019-05-22T17:01:56.138Z,5.23
2019-05-22T17:04:09.596Z,5.33
2019-05-22T17:06:42.825Z,5.77
2019-05-22T17:09:15.580Z,5.63
2019-05-22T17:11:46.891Z,5.87
2019-05-22T17:14:19.576Z,9.30
2019-05-22T17:16:51.377Z,5.40
2019-05-22T17:19:27.215Z,4.90
2019-05-22T17:21:54.503Z,6.10
2019-05-22T17:24:25.926Z,5.83
2019-05-22T17:26:57.231Z,5.40
2019-05-22T17:29:28.337Z,5.33
2019-05-22T17:31:59.755Z,7.10
2019-05-22T17:34:34.355Z,5.90
2019-05-22T17:37:09.388Z,5.77
2019-05-22T17:39:41.592Z,5.53
2019-05-22T17:42:15.788Z,5.20
2019-05-22T17:44:49.453Z,5.40
2019-05-22T17:47:21.658Z,5.23
2019-05-22T17:49:53.154Z,5.50
2019-05-22T17:52:24.236Z,6.00
2019-05-22T17:54:54.778Z,7.20
2019-05-22T17:57:25.203Z,5.87
2019-05-22T17:59:57.013Z,6.63
2019-05-22T18:02:34.987Z,5.63
2019-05-22T18:05:07.640Z,5.63
2019-05-22T18:07:38.632Z,6.17
2019-05-22T18:10:10.141Z,6.27
2019-05-22T18:12:41.770Z,8.07
2019-05-22T18:15:14.452Z,8.23
2019-05-22T18:17:45.531Z,8.37
2019-05-22T18:20:18.656Z,8.33
2019-05-22T18:22:49.104Z,9.50
2019-05-22T18:25:20.725Z,8.23
2019-05-22T18:27:53.263Z,7.70
2019-05-22T18:30:25.737Z,10.13
2019-05-22T18:32:56.649Z,9.27
2019-05-22T18:35:27.173Z,8.87
2019-05-22T18:37:57.578Z,8.90
2019-05-22T18:40:27.989Z,8.67
2019-05-22T18:42:58.457Z,9.70
2019-05-22T18:45:29.885Z,10.43
2019-05-22T18:48:00.466Z,9.73
2019-05-22T18:50:33.532Z,9.77
2019-05-22T18:53:04.464Z,9.30
2019-05-22T18:55:34.968Z,10.83
2019-05-22T18:58:05.553Z,9.70
2019-05-22T19:00:36.555Z,9.77
2019-05-22T19:03:07.525Z,10.47
2019-05-22T19:05:38.285Z,11.13
2019-05-22T19:08:08.625Z,11.60
2019-05-22T19:10:39.171Z,10.60
2019-05-22T19:13:09.673Z,12.87
2019-05-22T19:15:40.372Z,12.00
2019-05-22T19:18:11.187Z,12.10
2019-05-22T19:20:42.093Z,11.40
2019-05-22T19:23:13.487Z,14.30
2019-05-22T19:25:43.950Z,13.53
2019-05-22T19:28:14.544Z,12.87
2019-05-22T19:30:45.001Z,12.87
2019-05-22T19:33:15.643Z,12.87
2019-05-22T19:35:46.035Z,14.43
2019-05-22T19:38:16.368Z,15.40
2019-05-22T19:40:47.516Z,16.13
2019-05-22T19:43:17.983Z,15.20
2019-05-22T19:45:48.490Z,14.77
2019-05-22T19:48:19.337Z,14.30
2019-05-22T19:50:50.840Z,18.03
2019-05-22T19:53:22.748Z,13.83
2019-05-22T19:55:53.572Z,14.50
2019-05-22T19:58:25.513Z,17.20
2019-05-22T20:00:56.138Z,16.70
2019-05-22T20:03:26.413Z,14.03
2019-05-22T20:05:57.234Z,14.93
2019-05-22T20:08:27.655Z,14.10
2019-05-22T20:10:58.681Z,14.40
2019-05-22T20:13:29.206Z,14.17
2019-05-22T20:15:59.634Z,12.83
2019-05-22T20:18:29.998Z,15.33
2019-05-22T20:21:02.837Z,13.53
2019-05-22T20:23:36.415Z,15.63
2019-05-22T20:26:07.647Z,14.63
2019-05-22T20:28:39.502Z,16.40
2019-05-22T20:31:11.155Z,18.37
2019-05-22T20:33:41.914Z,17.20
2019-05-22T20:36:12.278Z,24.50
2019-05-22T20:38:42.702Z,23.83
2019-05-22T20:41:13.761Z,23.40
2019-05-22T20:43:44.511Z,24.23
2019-05-22T20:46:17.061Z,22.60
2019-05-22T20:48:48.240Z,24.00
2019-05-22T20:51:19.776Z,25.03
2019-05-22T20:53:54.611Z,24.83
2019-05-22T20:56:24.752Z,26.13
2019-05-22T20:58:55.108Z,26.57
2019-05-22T21:01:25.708Z,28.43
2019-05-22T21:03:57.348Z,27.67
2019-05-22T21:06:28.878Z,24.37
2019-05-22T21:08:59.952Z,26.70
2019-05-22T21:11:31.656Z,25.60
2019-05-22T21:14:03.116Z,25.57
2019-05-22T21:16:34.596Z,26.07
2019-05-22T21:19:06.969Z,27.53
2019-05-22T21:21:37.400Z,24.77
2019-05-22T21:24:11.714Z,26.83
2019-05-22T21:26:41.220Z,27.40
2019-05-22T21:29:12.123Z,27.27
2019-05-22T21:31:42.539Z,25.67
2019-05-22T21:34:13.570Z,26.47
2019-05-22T21:36:44.671Z,26.37
2019-05-22T21:39:16.781Z,28.83
2019-05-22T21:41:47.370Z,27.03
2019-05-22T21:44:18.226Z,26.27
2019-05-22T21:46:48.662Z,27.97
2019-05-22T21:49:19.284Z,27.43
2019-05-22T21:51:50.915Z,26.33
2019-05-22T21:54:21.339Z,26.73
2019-05-22T21:56:52.075Z,26.60
2019-05-22T21:59:22.516Z,28.43
2019-05-22T22:01:58.824Z,29.10
2019-05-22T22:04:32.799Z,26.77
2019-05-22T22:07:04.392Z,29.07
2019-05-22T22:09:36.493Z,28.37
2019-05-22T22:12:09.064Z,28.97
2019-05-22T22:14:39.901Z,30.73
2019-05-22T22:17:12.286Z,26.83
2019-05-22T22:19:42.741Z,29.30
2019-05-22T22:22:16.110Z,29.33
2019-05-22T22:24:47.129Z,31.10
2019-05-22T22:27:18.413Z,33.20
2019-05-22T22:29:50.331Z,31.27
2019-05-22T22:32:22.685Z,30.77
2019-05-22T22:34:53.885Z,29.33
2019-05-22T22:37:24.691Z,29.10
2019-05-22T22:39:57.087Z,28.80
2019-05-22T22:42:31.650Z,28.23
2019-05-22T22:45:04.856Z,29.57
2019-05-22T22:47:39.114Z,27.53
2019-05-22T22:50:55.461Z,31.73
2019-05-22T22:53:27.857Z,27.70
2019-05-22T22:55:58.547Z,32.33
2019-05-22T22:58:29.806Z,30.43
2019-05-22T23:01:02.124Z,32.60
2019-05-22T23:03:32.642Z,30.70
2019-05-22T23:06:03.537Z,32.07
2019-05-22T23:08:34.644Z,28.57
2019-05-22T23:11:07.018Z,30.50
2019-05-22T23:13:38.202Z,30.07
2019-05-22T23:16:10.086Z,36.60
2019-05-22T23:19:06.255Z,26.80
2019-05-22T23:21:35.947Z,28.30
2019-05-22T23:24:05.046Z,30.93
2019-05-22T23:26:36.389Z,29.17
2019-05-22T23:29:08.427Z,28.43
2019-05-22T23:31:40.166Z,28.50
2019-05-22T23:34:11.347Z,28.20
2019-05-22T23:36:42.526Z,27.33
2019-05-22T23:39:15.045Z,30.67
2019-05-22T23:41:46.464Z,27.97
2019-05-22T23:44:19.903Z,31.43
2019-05-22T23:46:50.755Z,28.80
2019-05-22T23:49:21.278Z,27.63
2019-05-22T23:51:52.899Z,29.17
2019-05-22T23:54:23.967Z,27.27
2019-05-22T23:56:56.063Z,27.43
2019-05-22T23:59:27.795Z,28.20
